sensor_id;sensor_type;location;lat;lon;timestamp;pressure;altitude;pressure_sealevel;temperature;humidity
78488;BME280;67885;49.758;9.582;2023-03-23T00:02:15;98474.38;;;18.54;39.29
78488;BME280;67885;49.758;9.582;2023-03-23T00:04:42;98462.50;;;18.42;39.43
78488;BME280;67885;49.758;9.582;2023-03-23T00:07:10;98479.94;;;18.53;39.71
78488;BME280;67885;49.758;9.582;2023-03-23T00:09:38;98475.59;;;18.52;39.79
78488;BME280;67885;49.758;9.582;2023-03-23T00:12:07;98460.19;;;18.39;39.42
78488;BME280;67885;49.758;9.582;2023-03-23T00:14:34;98452.28;;;18.31;39.78
78488;BME280;67885;49.758;9.582;2023-03-23T00:17:07;98480.88;;;18.45;39.75
78488;BME280;67885;49.758;9.582;2023-03-23T00:19:36;98467.03;;;18.42;39.80
78488;BME280;67885;49.758;9.582;2023-03-23T00:22:13;98471.31;;;18.36;39.81
78488;BME280;67885;49.758;9.582;2023-03-23T00:24:41;98473.38;;;18.34;39.62
78488;BME280;67885;49.758;9.582;2023-03-23T00:27:08;98456.94;;;18.22;39.89
78488;BME280;67885;49.758;9.582;2023-03-23T00:29:38;98466.91;;;18.28;39.91
78488;BME280;67885;49.758;9.582;2023-03-23T00:32:05;98398.13;;;17.92;39.95
78488;BME280;67885;49.758;9.582;2023-03-23T00:34:32;98466.66;;;18.23;40.06
78488;BME280;67885;49.758;9.582;2023-03-23T00:37:00;98462.31;;;18.22;40.17
78488;BME280;67885;49.758;9.582;2023-03-23T00:39:28;98455.28;;;18.21;40.11
78488;BME280;67885;49.758;9.582;2023-03-23T00:41:55;98456.50;;;18.18;39.87
78488;BME280;67885;49.758;9.582;2023-03-23T00:44:26;98454.00;;;18.17;39.67
78488;BME280;67885;49.758;9.582;2023-03-23T00:46:54;98454.19;;;18.15;39.98
78488;BME280;67885;49.758;9.582;2023-03-23T00:49:23;98452.72;;;18.13;39.94
78488;BME280;67885;49.758;9.582;2023-03-23T00:51:51;98456.81;;;18.09;39.99
78488;BME280;67885;49.758;9.582;2023-03-23T00:54:18;98430.69;;;17.96;40.61
78488;BME280;67885;49.758;9.582;2023-03-23T00:56:47;98456.81;;;18.09;40.14
78488;BME280;67885;49.758;9.582;2023-03-23T00:59:14;98448.13;;;18.07;40.31
78488;BME280;67885;49.758;9.582;2023-03-23T01:01:41;98462.72;;;18.04;40.38
78488;BME280;67885;49.758;9.582;2023-03-23T01:04:08;98411.41;;;17.85;40.30
78488;BME280;67885;49.758;9.582;2023-03-23T01:06:39;98447.28;;;18.06;39.91
78488;BME280;67885;49.758;9.582;2023-03-23T01:09:08;98468.38;;;17.94;39.82
78488;BME280;67885;49.758;9.582;2023-03-23T01:11:35;98401.91;;;17.83;39.89
78488;BME280;67885;49.758;9.582;2023-03-23T01:14:04;98423.78;;;18.01;39.75
78488;BME280;67885;49.758;9.582;2023-03-23T01:16:30;98419.63;;;17.99;40.02
78488;BME280;67885;49.758;9.582;2023-03-23T01:18:57;98423.13;;;17.99;40.38
78488;BME280;67885;49.758;9.582;2023-03-23T01:21:24;98419.81;;;17.97;39.53
78488;BME280;67885;49.758;9.582;2023-03-23T01:23:51;98416.88;;;17.92;39.58
78488;BME280;67885;49.758;9.582;2023-03-23T01:26:20;98401.44;;;17.79;39.79
78488;BME280;67885;49.758;9.582;2023-03-23T01:28:48;98410.16;;;17.66;40.08
78488;BME280;67885;49.758;9.582;2023-03-23T01:31:19;98408.53;;;17.87;40.14
78488;BME280;67885;49.758;9.582;2023-03-23T01:33:47;98397.53;;;17.82;40.11
78488;BME280;67885;49.758;9.582;2023-03-23T01:36:18;98403.75;;;17.82;40.03
78488;BME280;67885;49.758;9.582;2023-03-23T01:38:47;98367.78;;;17.55;40.33
78488;BME280;67885;49.758;9.582;2023-03-23T01:41:15;98402.53;;;17.85;39.72
78488;BME280;67885;49.758;9.582;2023-03-23T01:43:59;98393.19;;;17.81;40.29
78488;BME280;67885;49.758;9.582;2023-03-23T01:46:30;98369.47;;;17.56;39.71
78488;BME280;67885;49.758;9.582;2023-03-23T01:49:02;98415.59;;;17.73;40.30
78488;BME280;67885;49.758;9.582;2023-03-23T01:51:36;98365.84;;;17.64;39.92
78488;BME280;67885;49.758;9.582;2023-03-23T01:54:07;98392.84;;;17.84;39.94
78488;BME280;67885;49.758;9.582;2023-03-23T01:56:39;98394.69;;;17.83;39.80
78488;BME280;67885;49.758;9.582;2023-03-23T01:59:11;98352.94;;;17.52;40.17
78488;BME280;67885;49.758;9.582;2023-03-23T02:01:39;98393.19;;;17.81;39.83
78488;BME280;67885;49.758;9.582;2023-03-23T02:04:11;98376.16;;;17.67;39.88
78488;BME280;67885;49.758;9.582;2023-03-23T02:06:41;98372.66;;;17.66;39.95
78488;BME280;67885;49.758;9.582;2023-03-23T02:09:08;98317.97;;;17.17;40.29
78488;BME280;67885;49.758;9.582;2023-03-23T02:11:34;98387.59;;;17.76;39.72
78488;BME280;67885;49.758;9.582;2023-03-23T02:14:02;98388.81;;;17.73;40.14
78488;BME280;67885;49.758;9.582;2023-03-23T02:16:35;98392.50;;;17.72;40.50
78488;BME280;67885;49.758;9.582;2023-03-23T02:19:29;98217.13;;;16.51;40.40
78488;BME280;67885;49.758;9.582;2023-03-23T02:22:26;98386.88;;;17.67;40.32
78488;BME280;67885;49.758;9.582;2023-03-23T02:25:18;98384.66;;;17.70;40.07
78488;BME280;67885;49.758;9.582;2023-03-23T02:28:21;98349.44;;;17.52;40.41
78488;BME280;67885;49.758;9.582;2023-03-23T02:31:22;98339.41;;;17.39;40.17
78488;BME280;67885;49.758;9.582;2023-03-23T02:34:00;98364.84;;;17.65;40.12
78488;BME280;67885;49.758;9.582;2023-03-23T02:36:37;98387.25;;;17.64;40.25
78488;BME280;67885;49.758;9.582;2023-03-23T02:39:09;98361.50;;;17.63;40.17
78488;BME280;67885;49.758;9.582;2023-03-23T02:41:43;98359.22;;;17.60;40.21
78488;BME280;67885;49.758;9.582;2023-03-23T02:44:13;98354.25;;;17.57;39.90
78488;BME280;67885;49.758;9.582;2023-03-23T02:46:42;98347.41;;;17.54;39.97
78488;BME280;67885;49.758;9.582;2023-03-23T02:49:15;98344.91;;;17.52;40.12
78488;BME280;67885;49.758;9.582;2023-03-23T02:51:46;98337.91;;;17.51;39.90
78488;BME280;67885;49.758;9.582;2023-03-23T02:54:15;98347.56;;;17.52;39.93
78488;BME280;67885;49.758;9.582;2023-03-23T02:56:44;98346.13;;;17.50;40.61
78488;BME280;67885;49.758;9.582;2023-03-23T02:59:11;98354.16;;;17.50;40.22
78488;BME280;67885;49.758;9.582;2023-03-23T03:01:50;98366.69;;;17.49;40.52
78488;BME280;67885;49.758;9.582;2023-03-23T03:04:23;98291.78;;;16.98;40.35
78488;BME280;67885;49.758;9.582;2023-03-23T03:07:07;98366.88;;;17.48;40.81
78488;BME280;67885;49.758;9.582;2023-03-23T03:09:45;98373.72;;;17.50;40.44
78488;BME280;67885;49.758;9.582;2023-03-23T03:12:24;98310.94;;;17.16;40.40
78488;BME280;67885;49.758;9.582;2023-03-23T03:15:02;98287.19;;;16.92;40.35
78488;BME280;67885;49.758;9.582;2023-03-23T03:17:36;98351.22;;;17.45;40.00
78488;BME280;67885;49.758;9.582;2023-03-23T03:20:10;98367.78;;;17.55;40.25
78488;BME280;67885;49.758;9.582;2023-03-23T03:22:42;98353.41;;;17.56;40.06
78488;BME280;67885;49.758;9.582;2023-03-23T03:25:12;98341.66;;;17.57;40.42
78488;BME280;67885;49.758;9.582;2023-03-23T03:27:44;98334.25;;;17.59;40.01
78488;BME280;67885;49.758;9.582;2023-03-23T03:30:19;98243.81;;;16.96;40.50
78488;BME280;67885;49.758;9.582;2023-03-23T03:32:50;98289.13;;;17.34;40.07
78488;BME280;67885;49.758;9.582;2023-03-23T03:35:21;98331.84;;;17.64;40.02
78488;BME280;67885;49.758;9.582;2023-03-23T03:37:49;98333.31;;;17.67;39.47
78488;BME280;67885;49.758;9.582;2023-03-23T03:40:19;98335.19;;;17.66;39.80
78488;BME280;67885;49.758;9.582;2023-03-23T03:42:46;98324.31;;;17.53;40.03
78488;BME280;67885;49.758;9.582;2023-03-23T03:45:15;98387.47;;;17.62;39.91
78488;BME280;67885;49.758;9.582;2023-03-23T03:47:42;98335.53;;;17.63;39.82
78488;BME280;67885;49.758;9.582;2023-03-23T03:50:09;98334.53;;;17.64;39.83
78488;BME280;67885;49.758;9.582;2023-03-23T03:52:37;98341.94;;;17.62;39.29
78488;BME280;67885;49.758;9.582;2023-03-23T03:55:06;98340.06;;;17.63;39.70
78488;BME280;67885;49.758;9.582;2023-03-23T03:57:33;98342.50;;;17.58;39.87
78488;BME280;67885;49.758;9.582;2023-03-23T04:00:00;98344.34;;;17.57;40.17
78488;BME280;67885;49.758;9.582;2023-03-23T04:02:31;98336.69;;;17.54;40.05
78488;BME280;67885;49.758;9.582;2023-03-23T04:04:58;98335.03;;;17.53;39.98
78488;BME280;67885;49.758;9.582;2023-03-23T04:07:28;98316.63;;;17.43;39.88
78488;BME280;67885;49.758;9.582;2023-03-23T04:09:56;98343.69;;;17.55;40.22
78488;BME280;67885;49.758;9.582;2023-03-23T04:12:23;98252.81;;;17.10;39.65
78488;BME280;67885;49.758;9.582;2023-03-23T04:14:50;98296.72;;;17.31;40.08
78488;BME280;67885;49.758;9.582;2023-03-23T04:17:16;98332.16;;;17.55;39.84
78488;BME280;67885;49.758;9.582;2023-03-23T04:19:45;98333.56;;;17.50;40.11
78488;BME280;67885;49.758;9.582;2023-03-23T04:22:12;98337.25;;;17.49;40.39
78488;BME280;67885;49.758;9.582;2023-03-23T04:24:41;98328.31;;;17.42;40.52
78488;BME280;67885;49.758;9.582;2023-03-23T04:27:09;98349.03;;;17.55;40.17
78488;BME280;67885;49.758;9.582;2023-03-23T04:29:38;98328.84;;;17.52;40.23
78488;BME280;67885;49.758;9.582;2023-03-23T04:32:05;98334.72;;;17.63;40.20
78488;BME280;67885;49.758;9.582;2023-03-23T04:34:32;98336.00;;;17.67;40.51
78488;BME280;67885;49.758;9.582;2023-03-23T04:37:00;98335.81;;;17.68;40.65
78488;BME280;67885;49.758;9.582;2023-03-23T04:39:27;98341.81;;;17.70;40.42
78488;BME280;67885;49.758;9.582;2023-03-23T04:41:54;98331.09;;;17.70;40.35
78488;BME280;67885;49.758;9.582;2023-03-23T04:44:22;98345.97;;;17.73;40.61
78488;BME280;67885;49.758;9.582;2023-03-23T04:46:49;98337.09;;;17.73;40.85
78488;BME280;67885;49.758;9.582;2023-03-23T04:49:16;98290.41;;;17.39;40.49
78488;BME280;67885;49.758;9.582;2023-03-23T04:51:47;98335.81;;;17.68;40.74
78488;BME280;67885;49.758;9.582;2023-03-23T04:54:16;98272.97;;;17.28;40.79
78488;BME280;67885;49.758;9.582;2023-03-23T04:56:43;98342.19;;;17.46;41.07
78488;BME280;67885;49.758;9.582;2023-03-23T04:59:09;98342.94;;;17.61;41.06
78488;BME280;67885;49.758;9.582;2023-03-23T05:01:40;98345.63;;;17.61;41.33
78488;BME280;67885;49.758;9.582;2023-03-23T05:04:11;98320.00;;;17.52;41.32
78488;BME280;67885;49.758;9.582;2023-03-23T05:06:38;98314.38;;;17.47;41.80
78488;BME280;67885;49.758;9.582;2023-03-23T05:09:06;98343.56;;;17.63;42.23
78488;BME280;67885;49.758;9.582;2023-03-23T05:11:32;98351.06;;;17.68;42.53
78488;BME280;67885;49.758;9.582;2023-03-23T05:13:59;98344.22;;;17.65;42.01
78488;BME280;67885;49.758;9.582;2023-03-23T05:16:26;98305.19;;;17.34;43.07
78488;BME280;67885;49.758;9.582;2023-03-23T05:18:55;98328.53;;;17.41;42.00
78488;BME280;67885;49.758;9.582;2023-03-23T05:21:22;98367.25;;;17.60;42.90
78488;BME280;67885;49.758;9.582;2023-03-23T05:23:49;98357.53;;;17.59;42.67
78488;BME280;67885;49.758;9.582;2023-03-23T05:26:20;98332.41;;;17.38;43.63
78488;BME280;67885;49.758;9.582;2023-03-23T05:28:46;98350.38;;;17.44;43.84
78488;BME280;67885;49.758;9.582;2023-03-23T05:31:13;98369.00;;;17.52;44.38
78488;BME280;67885;49.758;9.582;2023-03-23T05:33:40;98365.69;;;17.50;43.77
78488;BME280;67885;49.758;9.582;2023-03-23T05:36:08;98340.50;;;17.45;44.69
78488;BME280;67885;49.758;9.582;2023-03-23T05:38:36;98345.97;;;17.36;44.49
78488;BME280;67885;49.758;9.582;2023-03-23T05:41:04;98369.00;;;17.52;45.02
78488;BME280;67885;49.758;9.582;2023-03-23T05:43:31;98367.16;;;17.53;44.31
78488;BME280;67885;49.758;9.582;2023-03-23T05:45:58;98376.19;;;17.52;44.70
78488;BME280;67885;49.758;9.582;2023-03-23T05:48:25;98357.97;;;17.41;44.88
78488;BME280;67885;49.758;9.582;2023-03-23T05:50:52;98384.25;;;17.52;45.35
78488;BME280;67885;49.758;9.582;2023-03-23T05:53:21;98425.06;;;17.54;44.89
78488;BME280;67885;49.758;9.582;2023-03-23T05:55:48;98386.72;;;17.53;43.70
78488;BME280;67885;49.758;9.582;2023-03-23T05:58:15;98387.88;;;17.29;44.80
78488;BME280;67885;49.758;9.582;2023-03-23T06:00:42;98385.25;;;17.51;44.30
78488;BME280;67885;49.758;9.582;2023-03-23T06:03:08;98393.28;;;17.51;45.07
78488;BME280;67885;49.758;9.582;2023-03-23T06:05:35;98393.09;;;17.52;44.93
78488;BME280;67885;49.758;9.582;2023-03-23T06:08:02;98396.41;;;17.55;44.72
78488;BME280;67885;49.758;9.582;2023-03-23T06:10:30;98397.06;;;17.57;44.88
78488;BME280;67885;49.758;9.582;2023-03-23T06:12:58;98393.34;;;17.58;44.14
78488;BME280;67885;49.758;9.582;2023-03-23T06:15:24;98388.19;;;17.56;44.57
78488;BME280;67885;49.758;9.582;2023-03-23T06:17:54;98382.75;;;17.49;44.61
78488;BME280;67885;49.758;9.582;2023-03-23T06:20:21;98366.63;;;17.43;44.92
78488;BME280;67885;49.758;9.582;2023-03-23T06:22:49;98405.19;;;17.48;44.39
78488;BME280;67885;49.758;9.582;2023-03-23T06:25:17;98395.88;;;17.44;44.69
78488;BME280;67885;49.758;9.582;2023-03-23T06:27:45;98336.72;;;17.02;44.18
78488;BME280;67885;49.758;9.582;2023-03-23T06:30:13;98402.53;;;17.33;44.99
78488;BME280;67885;49.758;9.582;2023-03-23T06:32:41;98396.47;;;17.25;44.68
78488;BME280;67885;49.758;9.582;2023-03-23T06:35:11;98396.56;;;17.16;45.24
78488;BME280;67885;49.758;9.582;2023-03-23T06:37:38;98421.03;;;17.28;44.96
78488;BME280;67885;49.758;9.582;2023-03-23T06:40:06;98395.56;;;17.17;44.63
78488;BME280;67885;49.758;9.582;2023-03-23T06:42:34;98415.38;;;17.23;44.78
78488;BME280;67885;49.758;9.582;2023-03-23T06:45:03;98408.19;;;17.09;44.90
78488;BME280;67885;49.758;9.582;2023-03-23T06:47:30;98415.56;;;17.22;45.13
78488;BME280;67885;49.758;9.582;2023-03-23T06:49:57;98396.09;;;17.13;45.23
78488;BME280;67885;49.758;9.582;2023-03-23T06:52:25;98413.72;;;17.22;45.28
78488;BME280;67885;49.758;9.582;2023-03-23T06:54:52;98377.75;;;17.10;45.09
78488;BME280;67885;49.758;9.582;2023-03-23T06:57:19;98406.34;;;17.24;44.95
78488;BME280;67885;49.758;9.582;2023-03-23T06:59:46;98352.09;;;17.00;45.25
78488;BME280;67885;49.758;9.582;2023-03-23T07:02:14;98328.09;;;16.77;45.39
78488;BME280;67885;49.758;9.582;2023-03-23T07:04:41;98414.81;;;17.43;45.05
78488;BME280;67885;49.758;9.582;2023-03-23T07:07:09;98397.19;;;17.33;44.27
78488;BME280;67885;49.758;9.582;2023-03-23T07:09:37;98415.00;;;17.41;45.22
78488;BME280;67885;49.758;9.582;2023-03-23T07:12:05;98420.16;;;17.43;45.18
78488;BME280;67885;49.758;9.582;2023-03-23T07:14:32;98407.72;;;17.35;45.11
78488;BME280;67885;49.758;9.582;2023-03-23T07:16:59;98367.66;;;17.12;45.09
78488;BME280;67885;49.758;9.582;2023-03-23T07:19:28;98414.72;;;17.36;44.83
78488;BME280;67885;49.758;9.582;2023-03-23T07:21:54;98386.41;;;17.12;45.06
78488;BME280;67885;49.758;9.582;2023-03-23T07:24:22;98434.63;;;17.48;45.15
78488;BME280;67885;49.758;9.582;2023-03-23T07:26:49;98436.50;;;17.48;45.36
78488;BME280;67885;49.758;9.582;2023-03-23T07:29:16;98410.94;;;17.30;45.11
78488;BME280;67885;49.758;9.582;2023-03-23T07:31:42;98427.06;;;17.52;45.24
78488;BME280;67885;49.758;9.582;2023-03-23T07:34:09;98411.78;;;17.46;45.27
78488;BME280;67885;49.758;9.582;2023-03-23T07:36:37;98425.94;;;17.61;45.31
78488;BME280;67885;49.758;9.582;2023-03-23T07:39:04;98437.94;;;17.65;45.39
78488;BME280;67885;49.758;9.582;2023-03-23T07:41:32;98435.53;;;17.70;44.91
78488;BME280;67885;49.758;9.582;2023-03-23T07:43:58;98437.56;;;17.68;44.78
78488;BME280;67885;49.758;9.582;2023-03-23T07:46:25;98362.69;;;17.24;44.90
78488;BME280;67885;49.758;9.582;2023-03-23T07:48:52;98440.72;;;17.72;45.04
78488;BME280;67885;49.758;9.582;2023-03-23T07:51:18;98440.63;;;17.65;45.36
78488;BME280;67885;49.758;9.582;2023-03-23T07:53:46;98440.53;;;17.59;46.00
78488;BME280;67885;49.758;9.582;2023-03-23T07:56:14;98421.19;;;17.42;46.80
78488;BME280;67885;49.758;9.582;2023-03-23T07:58:44;98453.75;;;17.60;46.27
78488;BME280;67885;49.758;9.582;2023-03-23T08:01:11;98457.63;;;17.58;46.36
78488;BME280;67885;49.758;9.582;2023-03-23T08:03:37;98464.84;;;17.57;46.64
78488;BME280;67885;49.758;9.582;2023-03-23T08:06:05;98435.88;;;17.31;46.35
78488;BME280;67885;49.758;9.582;2023-03-23T08:08:32;98428.75;;;17.23;46.30
78488;BME280;67885;49.758;9.582;2023-03-23T08:11:00;98443.81;;;17.24;46.41
78488;BME280;67885;49.758;9.582;2023-03-23T08:13:27;98474.34;;;17.30;46.80
78488;BME280;67885;49.758;9.582;2023-03-23T08:15:54;98470.72;;;17.23;46.85
78488;BME280;67885;49.758;9.582;2023-03-23T08:18:22;98474.44;;;17.22;47.25
78488;BME280;67885;49.758;9.582;2023-03-23T08:20:48;98478.03;;;17.29;47.56
78488;BME280;67885;49.758;9.582;2023-03-23T08:23:16;98489.31;;;17.24;47.98
78488;BME280;67885;49.758;9.582;2023-03-23T08:25:42;98488.66;;;17.37;46.87
78488;BME280;67885;49.758;9.582;2023-03-23T08:28:10;98490.22;;;17.31;47.26
78488;BME280;67885;49.758;9.582;2023-03-23T08:30:39;98493.63;;;17.25;47.21
78488;BME280;67885;49.758;9.582;2023-03-23T08:33:07;98497.34;;;17.24;47.55
78488;BME280;67885;49.758;9.582;2023-03-23T08:35:36;98447.66;;;16.92;48.36
78488;BME280;67885;49.758;9.582;2023-03-23T08:38:03;98480.31;;;17.02;47.86
78488;BME280;67885;49.758;9.582;2023-03-23T08:40:29;98497.88;;;17.19;48.00
78488;BME280;67885;49.758;9.582;2023-03-23T08:42:58;98504.50;;;17.24;48.36
78488;BME280;67885;49.758;9.582;2023-03-23T08:45:26;98467.31;;;16.99;48.57
78488;BME280;67885;49.758;9.582;2023-03-23T08:47:53;98522.34;;;17.31;47.90
78488;BME280;67885;49.758;9.582;2023-03-23T08:50:24;98516.97;;;17.31;48.78
78488;BME280;67885;49.758;9.582;2023-03-23T08:52:52;98451.34;;;16.91;48.73
78488;BME280;67885;49.758;9.582;2023-03-23T08:55:20;98507.56;;;17.21;48.54
78488;BME280;67885;49.758;9.582;2023-03-23T08:57:47;98504.41;;;17.32;48.02
78488;BME280;67885;49.758;9.582;2023-03-23T09:00:18;98504.06;;;17.35;48.88
78488;BME280;67885;49.758;9.582;2023-03-23T09:02:48;98512.38;;;17.40;48.56
78488;BME280;67885;49.758;9.582;2023-03-23T09:05:16;98510.44;;;17.34;48.33
78488;BME280;67885;49.758;9.582;2023-03-23T09:07:45;98502.50;;;17.41;48.42
78488;BME280;67885;49.758;9.582;2023-03-23T09:10:14;98512.84;;;17.44;48.74
78488;BME280;67885;49.758;9.582;2023-03-23T09:12:41;98495.38;;;17.48;49.38
78488;BME280;67885;49.758;9.582;2023-03-23T09:15:10;98501.50;;;17.57;49.35
78488;BME280;67885;49.758;9.582;2023-03-23T09:17:40;98484.31;;;17.51;49.09
78488;BME280;67885;49.758;9.582;2023-03-23T09:20:11;98498.44;;;17.60;48.74
78488;BME280;67885;49.758;9.582;2023-03-23T09:22:38;98519.09;;;17.66;48.51
78488;BME280;67885;49.758;9.582;2023-03-23T09:25:06;98515.69;;;17.57;48.75
78488;BME280;67885;49.758;9.582;2023-03-23T09:27:32;98528.91;;;17.59;48.60
78488;BME280;67885;49.758;9.582;2023-03-23T09:29:59;98538.13;;;17.56;48.72
78488;BME280;67885;49.758;9.582;2023-03-23T09:32:27;98534.34;;;17.50;48.32
78488;BME280;67885;49.758;9.582;2023-03-23T09:34:53;98543.56;;;17.48;48.84
78488;BME280;67885;49.758;9.582;2023-03-23T09:37:22;98417.13;;;16.63;48.23
78488;BME280;67885;49.758;9.582;2023-03-23T09:39:49;98525.84;;;17.32;49.08
78488;BME280;67885;49.758;9.582;2023-03-23T09:42:30;98532.78;;;17.41;48.51
78488;BME280;67885;49.758;9.582;2023-03-23T09:45:13;98432.19;;;16.79;48.62
78488;BME280;67885;49.758;9.582;2023-03-23T09:47:49;98546.16;;;17.56;48.69
78488;BME280;67885;49.758;9.582;2023-03-23T09:50:25;98436.31;;;16.90;48.06
78488;BME280;67885;49.758;9.582;2023-03-23T09:53:02;98551.22;;;17.66;48.61
78488;BME280;67885;49.758;9.582;2023-03-23T09:55:31;98554.75;;;17.66;49.04
78488;BME280;67885;49.758;9.582;2023-03-23T09:58:02;98552.09;;;17.66;50.27
78488;BME280;67885;49.758;9.582;2023-03-23T10:00:37;98511.53;;;17.40;50.46
78488;BME280;67885;49.758;9.582;2023-03-23T10:03:10;98537.31;;;17.56;49.90
78488;BME280;67885;49.758;9.582;2023-03-23T10:05:41;98557.72;;;17.57;49.25
78488;BME280;67885;49.758;9.582;2023-03-23T10:08:12;98578.38;;;17.63;49.22
78488;BME280;67885;49.758;9.582;2023-03-23T10:10:49;98590.84;;;17.56;50.10
78488;BME280;67885;49.758;9.582;2023-03-23T10:13:32;98580.22;;;17.47;49.51
78488;BME280;67885;49.758;9.582;2023-03-23T10:16:03;98575.28;;;17.21;49.42
78488;BME280;67885;49.758;9.582;2023-03-23T10:18:36;98586.13;;;17.43;49.15
78488;BME280;67885;49.758;9.582;2023-03-23T10:21:04;98575.50;;;17.49;49.90
78488;BME280;67885;49.758;9.582;2023-03-23T10:23:47;98551.97;;;17.45;49.42
78488;BME280;67885;49.758;9.582;2023-03-23T10:26:32;98573.41;;;17.60;50.06
78488;BME280;67885;49.758;9.582;2023-03-23T10:29:11;98577.81;;;17.67;49.79
78488;BME280;67885;49.758;9.582;2023-03-23T10:31:42;98581.06;;;17.78;49.66
78488;BME280;67885;49.758;9.582;2023-03-23T10:34:15;98579.41;;;17.77;48.24
78488;BME280;67885;49.758;9.582;2023-03-23T10:36:55;98563.63;;;17.67;49.02
78488;BME280;67885;49.758;9.582;2023-03-23T10:39:30;98517.19;;;17.60;48.93
78488;BME280;67885;49.758;9.582;2023-03-23T10:42:00;98551.09;;;17.97;48.27
78488;BME280;67885;49.758;9.582;2023-03-23T10:44:33;98553.09;;;18.10;48.45
78488;BME280;67885;49.758;9.582;2023-03-23T10:47:02;98559.81;;;18.21;48.90
78488;BME280;67885;49.758;9.582;2023-03-23T10:49:36;98572.81;;;18.24;47.83
78488;BME280;67885;49.758;9.582;2023-03-23T10:52:26;98566.66;;;18.24;47.86
78488;BME280;67885;49.758;9.582;2023-03-23T10:54:57;98563.78;;;18.25;47.29
78488;BME280;67885;49.758;9.582;2023-03-23T10:57:27;98573.69;;;18.25;46.11
78488;BME280;67885;49.758;9.582;2023-03-23T10:59:59;98494.53;;;17.77;47.27
78488;BME280;67885;49.758;9.582;2023-03-23T11:02:27;98562.31;;;18.23;46.52
78488;BME280;67885;49.758;9.582;2023-03-23T11:04:58;98568.03;;;18.19;46.17
78488;BME280;67885;49.758;9.582;2023-03-23T11:07:28;98559.47;;;18.09;46.17
78488;BME280;67885;49.758;9.582;2023-03-23T11:10:06;98544.34;;;18.01;46.20
78488;BME280;67885;49.758;9.582;2023-03-23T11:12:34;98559.66;;;18.08;45.68
78488;BME280;67885;49.758;9.582;2023-03-23T11:15:21;98527.13;;;17.81;45.89
78488;BME280;67885;49.758;9.582;2023-03-23T11:17:56;98567.22;;;18.04;45.52
78488;BME280;67885;49.758;9.582;2023-03-23T11:20:25;98571.13;;;18.01;46.00
78488;BME280;67885;49.758;9.582;2023-03-23T11:22:54;98556.16;;;17.92;46.16
78488;BME280;67885;49.758;9.582;2023-03-23T11:25:22;98567.31;;;17.96;45.96
78488;BME280;67885;49.758;9.582;2023-03-23T11:27:50;98559.94;;;17.83;46.89
78488;BME280;67885;49.758;9.582;2023-03-23T11:30:24;98570.44;;;17.84;46.26
78488;BME280;67885;49.758;9.582;2023-03-23T11:32:54;98576.38;;;17.80;46.93
78488;BME280;67885;49.758;9.582;2023-03-23T11:35:25;98573.50;;;17.81;47.55
78488;BME280;67885;49.758;9.582;2023-03-23T11:37:55;98572.94;;;17.86;47.73
78488;BME280;67885;49.758;9.582;2023-03-23T11:40:26;98583.22;;;17.82;47.59
78488;BME280;67885;49.758;9.582;2023-03-23T11:42:59;98587.34;;;17.85;48.84
78488;BME280;67885;49.758;9.582;2023-03-23T11:45:33;98511.81;;;17.45;48.89
78488;BME280;67885;49.758;9.582;2023-03-23T11:48:12;98581.63;;;17.88;49.51
78488;BME280;67885;49.758;9.582;2023-03-23T11:50:50;98578.56;;;17.91;50.22
78488;BME280;67885;49.758;9.582;2023-03-23T11:53:26;98587.94;;;17.95;50.11
78488;BME280;67885;49.758;9.582;2023-03-23T11:56:05;98548.03;;;17.56;50.24
78488;BME280;67885;49.758;9.582;2023-03-23T11:58:32;98590.81;;;17.94;50.39
78488;BME280;67885;49.758;9.582;2023-03-23T12:01:05;98579.97;;;17.87;50.51
78488;BME280;67885;49.758;9.582;2023-03-23T12:03:58;98576.28;;;17.88;50.75
78488;BME280;67885;49.758;9.582;2023-03-23T12:06:35;98534.72;;;17.62;50.64
78488;BME280;67885;49.758;9.582;2023-03-23T12:09:17;98580.59;;;17.89;50.61
78488;BME280;67885;49.758;9.582;2023-03-23T12:12:00;98472.97;;;17.19;50.25
78488;BME280;67885;49.758;9.582;2023-03-23T12:14:39;98584.50;;;17.86;50.46
78488;BME280;67885;49.758;9.582;2023-03-23T12:17:20;98486.78;;;17.23;50.78
78488;BME280;67885;49.758;9.582;2023-03-23T12:20:01;98582.97;;;17.92;50.64
78488;BME280;67885;49.758;9.582;2023-03-23T12:22:50;98580.16;;;17.85;51.19
78488;BME280;67885;49.758;9.582;2023-03-23T12:25:35;98573.59;;;17.88;51.49
78488;BME280;67885;49.758;9.582;2023-03-23T12:28:17;98545.06;;;17.65;51.29
78488;BME280;67885;49.758;9.582;2023-03-23T12:30:53;98560.22;;;17.88;52.98
78488;BME280;67885;49.758;9.582;2023-03-23T12:33:33;98531.94;;;17.85;52.58
78488;BME280;67885;49.758;9.582;2023-03-23T12:36:21;98549.78;;;18.08;52.54
78488;BME280;67885;49.758;9.582;2023-03-23T12:39:12;98544.31;;;18.16;51.71
78488;BME280;67885;49.758;9.582;2023-03-23T12:41:49;98543.34;;;18.24;52.45
78488;BME280;67885;49.758;9.582;2023-03-23T12:44:26;98543.63;;;18.29;51.50
78488;BME280;67885;49.758;9.582;2023-03-23T12:47:10;98543.88;;;18.34;51.44
78488;BME280;67885;49.758;9.582;2023-03-23T12:49:46;98541.00;;;18.36;50.78
78488;BME280;67885;49.758;9.582;2023-03-23T12:52:22;98539.16;;;18.36;51.02
78488;BME280;67885;49.758;9.582;2023-03-23T12:54:58;98530.03;;;18.31;51.57
78488;BME280;67885;49.758;9.582;2023-03-23T12:57:34;98535.72;;;18.43;50.11
78488;BME280;67885;49.758;9.582;2023-03-23T13:00:12;98515.22;;;18.35;50.47
78488;BME280;67885;49.758;9.582;2023-03-23T13:02:46;98535.59;;;18.51;49.68
78488;BME280;67885;49.758;9.582;2023-03-23T13:05:29;98492.81;;;18.21;49.80
78488;BME280;67885;49.758;9.582;2023-03-23T13:08:04;98540.97;;;18.51;48.56
78488;BME280;67885;49.758;9.582;2023-03-23T13:10:36;98499.19;;;18.42;49.19
78488;BME280;67885;49.758;9.582;2023-03-23T13:13:14;98519.78;;;18.56;49.01
78488;BME280;67885;49.758;9.582;2023-03-23T13:15:55;98495.63;;;18.56;47.81
78488;BME280;67885;49.758;9.582;2023-03-23T13:18:32;98483.63;;;18.52;48.22
78488;BME280;67885;49.758;9.582;2023-03-23T13:21:12;98495.44;;;18.58;47.90